createdAt,value
2023-05-24T00:01:07.645Z,6.80
2023-05-24T00:03:39.585Z,6.20
2023-05-24T00:06:09.689Z,6.80
2023-05-24T00:08:37.906Z,6.23
2023-05-24T00:11:06.292Z,5.23
2023-05-24T00:13:34.711Z,5.57
2023-05-24T00:16:03.178Z,5.77
2023-05-24T00:18:32.065Z,5.90
2023-05-24T00:21:00.446Z,5.50
2023-05-24T00:23:30.152Z,4.93
2023-05-24T00:25:58.317Z,5.20
2023-05-24T00:28:26.601Z,4.77
2023-05-24T00:30:54.939Z,4.60
2023-05-24T00:33:23.456Z,5.07
2023-05-24T00:35:56.319Z,5.13
2023-05-24T00:38:24.750Z,4.90
2023-05-24T00:40:57.434Z,5.23
2023-05-24T00:43:25.787Z,5.60
2023-05-24T00:46:11.959Z,4.67
2023-05-24T00:48:40.240Z,4.27
2023-05-24T00:51:08.568Z,4.10
2023-05-24T00:53:39.863Z,4.40
2023-05-24T00:56:10.213Z,4.60
2023-05-24T00:58:39.158Z,4.73
2023-05-24T01:01:08.476Z,4.60
2023-05-24T01:03:37.498Z,4.77
2023-05-24T01:06:07.973Z,4.30
2023-05-24T01:08:49.175Z,4.90
2023-05-24T01:11:27.659Z,5.27
2023-05-24T01:14:04.510Z,4.67
2023-05-24T01:16:41.854Z,3.93
2023-05-24T01:19:27.240Z,4.27
2023-05-24T01:22:09.392Z,4.83
2023-05-24T01:24:53.728Z,4.33
2023-05-24T01:27:25.084Z,4.77
2023-05-24T01:29:54.395Z,4.60
2023-05-24T01:32:22.990Z,4.00
2023-05-24T01:34:51.487Z,4.40
2023-05-24T01:37:20.111Z,3.80
2023-05-24T01:39:48.640Z,4.60
2023-05-24T01:42:25.316Z,4.27
2023-05-24T01:45:02.804Z,4.00
2023-05-24T01:47:41.041Z,4.27
2023-05-24T01:50:17.639Z,4.37
2023-05-24T01:52:47.788Z,4.17
2023-05-24T01:55:18.668Z,3.77
2023-05-24T01:57:51.722Z,4.07
2023-05-24T02:00:21.409Z,4.40
2023-05-24T02:02:49.974Z,3.57
2023-05-24T02:05:19.323Z,4.60
2023-05-24T02:07:47.549Z,4.20
2023-05-24T02:10:15.857Z,4.30
2023-05-24T02:12:44.045Z,3.77
2023-05-24T02:15:15.062Z,4.00
2023-05-24T02:17:44.355Z,4.07
2023-05-24T02:20:14.163Z,4.40
2023-05-24T02:22:42.451Z,4.67
2023-05-24T02:25:10.978Z,4.93
2023-05-24T02:27:39.293Z,4.50
2023-05-24T02:30:08.891Z,4.07
2023-05-24T02:32:38.574Z,4.70
2023-05-24T02:35:07.717Z,5.10
2023-05-24T02:37:36.523Z,4.30
2023-05-24T02:40:05.467Z,4.20
2023-05-24T02:42:33.826Z,4.23
2023-05-24T02:45:02.279Z,4.37
2023-05-24T02:47:30.669Z,4.77
2023-05-24T02:50:00.229Z,4.70
2023-05-24T02:52:28.483Z,4.67
2023-05-24T02:54:56.747Z,5.00
2023-05-24T02:57:25.123Z,4.63
2023-05-24T02:59:53.286Z,3.90
2023-05-24T03:02:22.123Z,4.30
2023-05-24T03:04:50.284Z,4.10
2023-05-24T03:07:20.281Z,4.87
2023-05-24T03:09:48.890Z,4.63
2023-05-24T03:12:17.440Z,4.57
2023-05-24T03:14:45.775Z,4.60
2023-05-24T03:17:13.961Z,4.30
2023-05-24T03:19:42.204Z,4.87
2023-05-24T03:22:10.494Z,4.13
2023-05-24T03:24:40.432Z,4.73
2023-05-24T03:27:09.746Z,4.83
2023-05-24T03:29:38.067Z,5.90
2023-05-24T03:32:06.908Z,4.73
2023-05-24T03:34:35.348Z,4.70
2023-05-24T03:37:04.079Z,5.20
2023-05-24T03:39:32.359Z,4.90
2023-05-24T03:42:29.869Z,4.63
2023-05-24T03:44:58.420Z,4.97
2023-05-24T03:47:26.741Z,4.00
2023-05-24T03:49:55.197Z,4.10
2023-05-24T03:52:23.606Z,4.97
2023-05-24T03:54:51.870Z,4.40
2023-05-24T03:57:20.138Z,4.93
2023-05-24T03:59:50.151Z,4.37
2023-05-24T04:02:18.475Z,4.53
2023-05-24T04:04:47.006Z,4.73
2023-05-24T04:07:16.452Z,4.47
2023-05-24T04:09:45.150Z,4.00
2023-05-24T04:12:13.405Z,4.50
2023-05-24T04:14:43.497Z,5.07
2023-05-24T04:17:13.530Z,4.77
2023-05-24T04:19:42.304Z,4.13
2023-05-24T04:22:10.780Z,4.70
2023-05-24T04:24:39.102Z,4.83
2023-05-24T04:27:08.126Z,4.63
2023-05-24T04:29:36.418Z,4.93
2023-05-24T04:32:04.666Z,4.20
2023-05-24T04:34:35.688Z,4.43
2023-05-24T04:37:04.782Z,4.43
2023-05-24T04:39:32.935Z,4.87
2023-05-24T04:42:01.183Z,4.37
2023-05-24T04:44:29.377Z,4.87
2023-05-24T04:46:57.854Z,4.80
2023-05-24T04:49:26.228Z,5.00
2023-05-24T04:51:56.026Z,5.10
2023-05-24T04:54:25.176Z,5.10
2023-05-24T04:56:53.489Z,5.23
2023-05-24T04:59:22.093Z,4.60
2023-05-24T05:01:50.724Z,6.00
2023-05-24T05:04:19.113Z,5.67
2023-05-24T05:06:48.795Z,4.93
2023-05-24T05:09:19.041Z,3.97
2023-05-24T05:11:48.500Z,5.10
2023-05-24T05:14:17.499Z,4.70
2023-05-24T05:16:46.511Z,5.17
2023-05-24T05:19:15.041Z,4.50
2023-05-24T05:21:43.212Z,5.60
2023-05-24T05:24:11.499Z,4.77
2023-05-24T05:26:41.825Z,5.27
2023-05-24T05:29:09.987Z,4.90
2023-05-24T05:31:39.731Z,4.97
2023-05-24T05:34:09.836Z,4.83
2023-05-24T05:36:40.862Z,5.33
2023-05-24T05:39:10.642Z,5.50
2023-05-24T05:41:45.777Z,4.80
2023-05-24T05:44:14.911Z,4.90
2023-05-24T05:46:46.140Z,4.83
2023-05-24T05:49:15.411Z,4.80
2023-05-24T05:51:44.007Z,4.50
2023-05-24T05:54:15.522Z,5.17
2023-05-24T05:56:48.033Z,4.53
2023-05-24T05:59:17.056Z,4.60
2023-05-24T06:01:47.698Z,5.57
2023-05-24T06:04:16.405Z,4.50
2023-05-24T06:06:45.605Z,5.43
2023-05-24T06:09:14.191Z,5.00
2023-05-24T06:11:44.904Z,4.77
2023-05-24T06:14:19.901Z,4.50
2023-05-24T06:16:48.510Z,5.20
2023-05-24T06:19:17.193Z,5.40
2023-05-24T06:21:48.287Z,4.97
2023-05-24T06:24:20.595Z,4.90
2023-05-24T06:26:49.318Z,5.30
2023-05-24T06:29:20.562Z,3.87
2023-05-24T06:31:49.843Z,4.70
2023-05-24T06:34:21.302Z,5.00
2023-05-24T06:36:51.313Z,4.07
2023-05-24T06:39:20.944Z,4.50
2023-05-24T06:41:51.336Z,4.30
2023-05-24T06:44:33.998Z,5.20
2023-05-24T06:47:03.271Z,6.00
2023-05-24T06:49:31.736Z,4.53
2023-05-24T06:52:00.034Z,5.50
2023-05-24T06:54:28.497Z,4.80
2023-05-24T06:56:56.946Z,4.90
2023-05-24T06:59:27.321Z,5.27
2023-05-24T07:01:58.950Z,4.63
2023-05-24T07:04:29.317Z,5.33
2023-05-24T07:06:58.505Z,4.80
2023-05-24T07:09:26.931Z,4.70
2023-05-24T07:11:55.373Z,5.17
2023-05-24T07:14:26.141Z,5.27
2023-05-24T07:16:57.660Z,5.67
2023-05-24T07:19:29.571Z,4.40
2023-05-24T07:21:58.115Z,4.83
2023-05-24T07:24:26.597Z,4.50
2023-05-24T07:26:56.694Z,6.20
2023-05-24T07:29:25.910Z,5.47
2023-05-24T07:31:58.185Z,5.17
2023-05-24T07:34:30.373Z,4.20
2023-05-24T07:37:00.787Z,4.10
2023-05-24T07:39:29.557Z,4.87
2023-05-24T07:41:58.075Z,5.10
2023-05-24T07:44:27.207Z,5.20
2023-05-24T07:46:57.268Z,4.70
2023-05-24T07:49:25.486Z,4.93
2023-05-24T07:51:56.988Z,5.40
2023-05-24T07:54:25.414Z,4.73
2023-05-24T07:56:53.771Z,5.00
2023-05-24T07:59:23.038Z,5.73
2023-05-24T08:01:52.904Z,5.03
2023-05-24T08:04:23.981Z,6.20
2023-05-24T08:06:52.264Z,5.17
2023-05-24T08:09:20.531Z,4.87
2023-05-24T08:11:48.937Z,5.00
2023-05-24T08:14:17.302Z,5.50
2023-05-24T08:16:45.497Z,5.67
2023-05-24T08:19:13.840Z,5.60
2023-05-24T08:21:43.772Z,5.67
2023-05-24T08:24:12.118Z,5.90
2023-05-24T08:26:40.520Z,5.53
2023-05-24T08:29:08.876Z,4.40
2023-05-24T08:31:38.311Z,5.50
2023-05-24T08:34:07.306Z,5.70
2023-05-24T08:36:35.622Z,5.67
2023-05-24T08:39:06.896Z,5.53
2023-05-24T08:41:37.739Z,5.53
2023-05-24T08:44:07.543Z,4.90
2023-05-24T08:46:37.084Z,5.10
2023-05-24T08:49:07.651Z,5.23
2023-05-24T08:51:38.686Z,5.20
2023-05-24T08:54:09.884Z,6.43
2023-05-24T08:56:39.803Z,5.40
2023-05-24T08:59:08.539Z,4.60
2023-05-24T09:01:41.269Z,6.00
2023-05-24T09:04:11.080Z,5.00
2023-05-24T09:06:39.504Z,5.30
2023-05-24T09:09:11.527Z,5.23
2023-05-24T09:11:41.113Z,6.17
2023-05-24T09:14:09.584Z,4.43
2023-05-24T09:16:38.353Z,5.60
2023-05-24T09:19:07.005Z,4.57
2023-05-24T09:21:35.649Z,4.90
2023-05-24T09:24:04.055Z,5.47
2023-05-24T09:26:33.884Z,4.90
2023-05-24T09:29:02.250Z,5.50
2023-05-24T09:31:35.188Z,5.23
2023-05-24T09:34:04.093Z,6.20
2023-05-24T09:36:34.251Z,5.20
2023-05-24T09:39:10.767Z,4.77
2023-05-24T09:41:44.497Z,5.47
2023-05-24T09:44:15.966Z,4.87
2023-05-24T09:46:44.271Z,5.30
2023-05-24T09:49:12.574Z,5.00
2023-05-24T09:51:40.803Z,5.13
2023-05-24T09:54:10.523Z,5.60
2023-05-24T09:56:43.129Z,6.20
2023-05-24T09:59:11.369Z,5.53
2023-05-24T10:01:39.764Z,5.43
2023-05-24T10:04:10.204Z,5.90
2023-05-24T10:06:39.214Z,6.30
2023-05-24T10:09:07.994Z,5.67
2023-05-24T10:11:38.060Z,5.63
2023-05-24T10:14:10.365Z,6.70
2023-05-24T10:16:39.099Z,4.80
2023-05-24T10:19:08.354Z,5.97
2023-05-24T10:21:41.311Z,6.00
2023-05-24T10:24:12.689Z,5.83
2023-05-24T10:26:42.616Z,5.47
2023-05-24T10:29:23.419Z,4.57
2023-05-24T10:31:54.396Z,5.50
2023-05-24T10:34:23.199Z,4.33
2023-05-24T10:36:52.165Z,4.93
2023-05-24T10:39:23.195Z,5.30
2023-05-24T10:41:51.727Z,5.87
2023-05-24T10:44:22.696Z,5.90
2023-05-24T10:47:11.030Z,5.80
2023-05-24T10:49:40.046Z,5.03
2023-05-24T10:52:12.575Z,5.93
2023-05-24T10:54:49.721Z,5.50
2023-05-24T10:57:25.922Z,4.30
2023-05-24T10:59:58.657Z,5.57
2023-05-24T11:02:36.169Z,6.00
2023-05-24T11:05:07.569Z,4.80
2023-05-24T11:07:43.030Z,4.53
2023-05-24T11:10:15.233Z,4.33
2023-05-24T11:12:45.040Z,5.23
2023-05-24T11:15:25.211Z,5.33
2023-05-24T11:18:15.570Z,4.97
2023-05-24T11:20:44.716Z,5.87
2023-05-24T11:23:13.224Z,5.90
2023-05-24T11:25:41.940Z,5.73
2023-05-24T11:28:12.368Z,5.10
2023-05-24T11:30:43.113Z,6.03
2023-05-24T11:33:18.999Z,5.03
2023-05-24T11:35:47.575Z,5.27
2023-05-24T11:38:16.668Z,5.70
2023-05-24T11:40:46.187Z,5.07
2023-05-24T11:43:16.766Z,4.40
2023-05-24T11:45:50.873Z,3.60
2023-05-24T11:48:21.299Z,5.33
2023-05-24T11:50:50.555Z,4.83
2023-05-24T11:53:21.625Z,4.20
2023-05-24T11:55:51.533Z,4.00
2023-05-24T11:58:24.618Z,4.53
2023-05-24T12:00:54.327Z,4.53
2023-05-24T12:03:23.355Z,4.37
2023-05-24T12:05:52.911Z,3.90
2023-05-24T12:08:21.372Z,4.10
2023-05-24T12:10:51.818Z,4.80
2023-05-24T12:13:23.215Z,4.43
2023-05-24T12:15:56.491Z,4.07
2023-05-24T12:18:26.871Z,4.83
2023-05-24T12:20:55.635Z,4.23
2023-05-24T12:23:25.820Z,4.27
2023-05-24T12:25:59.477Z,4.40
2023-05-24T12:28:28.564Z,4.07
2023-05-24T12:30:59.233Z,3.93
2023-05-24T12:33:27.476Z,3.80
2023-05-24T12:35:56.469Z,3.70
2023-05-24T12:38:26.223Z,4.30
2023-05-24T12:41:11.401Z,3.57
2023-05-24T12:43:41.669Z,2.90
2023-05-24T12:46:11.397Z,3.47
2023-05-24T12:48:39.573Z,3.63
2023-05-24T12:51:08.618Z,3.00
2023-05-24T12:53:36.998Z,3.20
2023-05-24T12:56:05.438Z,2.83
2023-05-24T12:58:33.615Z,3.30
2023-05-24T13:01:01.888Z,3.70
2023-05-24T13:03:31.653Z,3.53
2023-05-24T13:06:00.719Z,3.20
2023-05-24T13:08:30.145Z,3.87
2023-05-24T13:10:58.398Z,3.03
2023-05-24T13:13:26.646Z,4.13
2023-05-24T13:15:55.128Z,3.43
2023-05-24T13:18:23.730Z,3.47
2023-05-24T13:20:53.662Z,2.47
2023-05-24T13:23:22.027Z,2.60
2023-05-24T13:25:50.943Z,3.37
2023-05-24T13:28:19.215Z,3.60
2023-05-24T13:30:48.876Z,2.90
2023-05-24T13:33:17.354Z,2.97
2023-05-24T13:35:45.850Z,2.77
2023-05-24T13:38:15.653Z,2.33
2023-05-24T13:40:44.709Z,4.03
2023-05-24T13:43:13.107Z,3.10
2023-05-24T13:45:41.371Z,3.77
2023-05-24T13:48:09.890Z,3.10
2023-05-24T13:50:39.365Z,3.33
2023-05-24T13:53:08.203Z,2.77
2023-05-24T13:55:38.799Z,3.20
2023-05-24T13:58:07.325Z,2.80
2023-05-24T14:00:36.196Z,2.50
2023-05-24T14:03:06.003Z,2.87
2023-05-24T14:05:34.358Z,3.23
2023-05-24T14:08:06.676Z,3.83
2023-05-24T14:10:36.775Z,2.57
2023-05-24T14:15:38.049Z,3.90
2023-05-24T14:18:08.661Z,2.93
2023-05-24T14:20:38.161Z,2.80
2023-05-24T14:23:08.225Z,2.80
2023-05-24T14:25:36.815Z,2.90
2023-05-24T14:28:08.621Z,3.00
2023-05-24T14:30:38.766Z,2.97
2023-05-24T14:33:08.600Z,2.90
2023-05-24T14:35:39.881Z,3.50
2023-05-24T14:38:09.546Z,2.40
2023-05-24T14:40:40.117Z,3.20
2023-05-24T14:43:11.405Z,3.00
2023-05-24T14:45:41.752Z,2.60
2023-05-24T14:48:12.435Z,2.90
2023-05-24T14:50:41.780Z,2.73
2023-05-24T14:53:12.362Z,2.30
2023-05-24T14:55:43.366Z,2.40
2023-05-24T14:58:14.392Z,3.10
2023-05-24T15:00:43.994Z,2.37
2023-05-24T15:03:14.551Z,2.43
2023-05-24T15:05:43.848Z,3.20
2023-05-24T15:08:12.346Z,2.90
2023-05-24T15:10:41.237Z,2.93
2023-05-24T15:13:09.704Z,3.37
2023-05-24T15:15:39.387Z,2.47
2023-05-24T15:18:08.354Z,3.10
2023-05-24T15:20:36.713Z,2.87
2023-05-24T15:23:05.980Z,3.10
2023-05-24T15:25:34.258Z,2.97
2023-05-24T15:28:03.137Z,2.57
2023-05-24T15:30:31.665Z,3.33
2023-05-24T15:33:01.433Z,2.90
2023-05-24T15:35:29.665Z,3.03
2023-05-24T15:37:58.150Z,2.33
2023-05-24T15:40:26.686Z,3.40
2023-05-24T15:42:55.000Z,3.37
2023-05-24T15:45:23.587Z,2.87
2023-05-24T15:47:52.009Z,2.67
2023-05-24T15:50:31.666Z,2.60
2023-05-24T15:53:09.806Z,3.20
2023-05-24T15:55:38.999Z,2.97
2023-05-24T15:58:07.246Z,3.00
2023-05-24T16:00:35.497Z,2.50
2023-05-24T16:03:04.148Z,2.87
2023-05-24T16:05:33.843Z,3.47
2023-05-24T16:08:02.668Z,2.53
2023-05-24T16:10:30.939Z,2.70
2023-05-24T16:13:00.009Z,2.50
2023-05-24T16:15:30.098Z,2.50
2023-05-24T16:17:58.455Z,2.73
2023-05-24T16:20:26.796Z,2.67
2023-05-24T16:22:56.494Z,3.20
2023-05-24T16:25:25.822Z,2.83
2023-05-24T16:27:56.367Z,2.47
2023-05-24T16:30:25.614Z,3.40
2023-05-24T16:32:54.181Z,3.60
2023-05-24T16:35:22.626Z,3.40
2023-05-24T16:37:52.632Z,2.27
2023-05-24T16:40:22.818Z,2.90
2023-05-24T16:42:53.787Z,4.00
2023-05-24T16:45:22.441Z,2.90
2023-05-24T16:47:51.164Z,2.80
2023-05-24T16:50:20.228Z,2.77
2023-05-24T16:52:48.570Z,3.27
2023-05-24T16:55:17.137Z,2.67
2023-05-24T16:57:46.744Z,2.60
2023-05-24T17:00:16.539Z,3.90
2023-05-24T17:02:44.905Z,3.53
2023-05-24T17:05:13.236Z,3.00
2023-05-24T17:07:41.369Z,3.00
2023-05-24T17:10:10.841Z,3.03
2023-05-24T17:12:39.078Z,2.83
2023-05-24T17:15:10.082Z,2.40
2023-05-24T17:17:38.366Z,2.30
2023-05-24T17:20:07.744Z,3.10
2023-05-24T17:22:36.046Z,2.90
2023-05-24T17:25:04.475Z,2.90
2023-05-24T17:27:32.823Z,3.17
2023-05-24T17:30:01.015Z,2.63
2023-05-24T17:32:31.370Z,2.80
2023-05-24T17:35:17.232Z,2.63
2023-05-24T17:37:45.759Z,2.90
2023-05-24T17:40:14.105Z,3.10
2023-05-24T17:42:43.269Z,3.40
2023-05-24T17:45:12.402Z,3.03
2023-05-24T17:47:40.820Z,3.20
2023-05-24T17:50:10.699Z,2.80
2023-05-24T17:52:40.481Z,3.20
2023-05-24T17:55:10.714Z,3.83
2023-05-24T17:57:38.931Z,2.83
2023-05-24T18:00:08.625Z,2.97
2023-05-24T18:02:47.387Z,3.47
2023-05-24T18:05:16.669Z,2.93
2023-05-24T18:07:46.576Z,3.47
2023-05-24T18:10:14.821Z,3.40
2023-05-24T18:12:43.613Z,2.77
2023-05-24T18:15:12.738Z,3.97
2023-05-24T18:17:41.046Z,3.00
2023-05-24T18:20:10.020Z,3.77
2023-05-24T18:22:39.674Z,3.57
2023-05-24T18:25:11.150Z,3.40
2023-05-24T18:27:39.452Z,3.80
2023-05-24T18:30:09.337Z,2.90
2023-05-24T18:32:41.972Z,3.10
2023-05-24T18:35:14.705Z,3.03
2023-05-24T18:37:43.212Z,2.70
2023-05-24T18:40:14.774Z,3.63
2023-05-24T18:42:43.154Z,3.30
2023-05-24T18:45:12.090Z,3.30
2023-05-24T18:47:40.666Z,3.23
2023-05-24T18:50:09.974Z,3.77
2023-05-24T18:52:38.245Z,3.00
2023-05-24T18:55:10.880Z,3.57
2023-05-24T18:57:40.793Z,3.37
2023-05-24T19:00:10.380Z,3.40
2023-05-24T19:02:39.700Z,3.57
2023-05-24T19:05:08.490Z,4.23
2023-05-24T19:07:37.358Z,4.10
2023-05-24T19:10:06.765Z,3.97
2023-05-24T19:12:35.218Z,3.67
2023-05-24T19:15:05.377Z,3.50
2023-05-24T19:17:33.938Z,3.43
2023-05-24T19:20:02.695Z,3.67
2023-05-24T19:22:31.255Z,4.00
2023-05-24T19:24:59.567Z,3.50
2023-05-24T19:27:28.443Z,3.63
2023-05-24T19:29:59.077Z,3.00
2023-05-24T19:32:28.829Z,4.60
2023-05-24T19:34:57.338Z,3.50
2023-05-24T19:37:25.783Z,3.90
2023-05-24T19:39:54.035Z,3.93
2023-05-24T19:42:22.270Z,4.07
2023-05-24T19:44:50.903Z,4.30
2023-05-24T19:47:19.097Z,3.27
2023-05-24T19:49:48.720Z,4.20
2023-05-24T19:52:19.166Z,4.00
2023-05-24T19:54:47.452Z,4.63
2023-05-24T19:57:15.657Z,3.40
2023-05-24T19:59:44.312Z,4.33
2023-05-24T20:02:12.720Z,3.87
2023-05-24T20:04:41.991Z,4.17
2023-05-24T20:07:11.884Z,4.03
2023-05-24T20:09:41.694Z,3.60
2023-05-24T20:12:09.993Z,4.43
2023-05-24T20:14:38.236Z,3.60
2023-05-24T20:17:06.656Z,3.43
2023-05-24T20:19:34.946Z,3.47
2023-05-24T20:22:03.648Z,3.60
2023-05-24T20:24:33.667Z,3.73
2023-05-24T20:27:02.356Z,3.57
2023-05-24T20:29:30.810Z,3.70
2023-05-24T20:31:59.333Z,3.90
2023-05-24T20:34:27.725Z,3.87
2023-05-24T20:36:55.977Z,4.87
2023-05-24T20:39:24.204Z,3.63
2023-05-24T20:41:54.025Z,3.93
2023-05-24T20:44:22.184Z,3.90
2023-05-24T20:46:50.617Z,4.23
2023-05-24T20:49:19.196Z,4.00
2023-05-24T20:51:47.750Z,3.70
2023-05-24T20:54:16.066Z,3.90
2023-05-24T20:56:44.539Z,3.80
2023-05-24T20:59:14.104Z,3.83
2023-05-24T21:01:42.602Z,3.47
2023-05-24T21:04:11.210Z,3.37
2023-05-24T21:06:40.410Z,3.50
2023-05-24T21:09:08.889Z,3.60
2023-05-24T21:11:37.278Z,3.40
2023-05-24T21:14:06.238Z,3.30
2023-05-24T21:16:36.530Z,3.50
2023-05-24T21:19:05.085Z,3.87
2023-05-24T21:21:33.420Z,3.63
2023-05-24T21:24:01.873Z,4.30
2023-05-24T21:26:30.116Z,2.90
2023-05-24T21:28:58.291Z,3.27
2023-05-24T21:31:28.464Z,3.87
2023-05-24T21:33:59.660Z,3.83
2023-05-24T21:36:27.977Z,3.37
2023-05-24T21:38:57.039Z,3.60
2023-05-24T21:41:25.413Z,4.00
2023-05-24T21:43:53.727Z,3.80
2023-05-24T21:46:22.182Z,3.20
2023-05-24T21:48:50.470Z,3.43
2023-05-24T21:51:20.456Z,3.60
2023-05-24T21:53:48.925Z,3.90
2023-05-24T21:56:17.194Z,3.77
2023-05-24T21:58:45.550Z,4.30
2023-05-24T22:01:13.987Z,3.50
2023-05-24T22:03:42.392Z,3.67
2023-05-24T22:06:10.897Z,3.93
2023-05-24T22:08:40.899Z,4.00
2023-05-24T22:11:09.204Z,3.00
2023-05-24T22:13:37.420Z,3.40
2023-05-24T22:16:06.754Z,3.10
2023-05-24T22:18:35.005Z,3.03
2023-05-24T22:21:03.629Z,3.80
2023-05-24T22:23:31.919Z,3.80
2023-05-24T22:26:01.825Z,3.83
2023-05-24T22:28:30.239Z,3.07
2023-05-24T22:30:59.101Z,4.20
2023-05-24T22:33:27.346Z,3.77
2023-05-24T22:35:55.644Z,3.70
2023-05-24T22:38:23.847Z,4.50
2023-05-24T22:40:52.310Z,4.47
2023-05-24T22:43:21.936Z,3.47
2023-05-24T22:45:50.123Z,3.77
2023-05-24T22:48:18.391Z,3.80
2023-05-24T22:50:46.825Z,2.80
2023-05-24T22:53:17.281Z,3.23
2023-05-24T22:55:46.034Z,3.50
2023-05-24T22:58:15.586Z,3.40
2023-05-24T23:00:45.374Z,3.83
2023-05-24T23:03:13.663Z,3.20
2023-05-24T23:05:42.444Z,3.87
2023-05-24T23:08:13.240Z,3.40
2023-05-24T23:10:45.548Z,4.13
2023-05-24T23:13:14.856Z,3.90
2023-05-24T23:15:45.194Z,3.80
2023-05-24T23:18:16.108Z,4.20
2023-05-24T23:20:45.239Z,3.53
2023-05-24T23:23:13.722Z,3.63
2023-05-24T23:25:43.433Z,3.17
2023-05-24T23:28:11.989Z,3.07
2023-05-24T23:30:40.237Z,4.23
2023-05-24T23:33:09.969Z,3.63
2023-05-24T23:35:39.552Z,3.97
2023-05-24T23:38:07.954Z,3.77
2023-05-24T23:40:36.758Z,4.10
2023-05-24T23:43:05.420Z,4.23
2023-05-24T23:45:33.739Z,3.20
2023-05-24T23:48:02.371Z,4.73
2023-05-24T23:50:37.468Z,4.00
2023-05-24T23:53:14.785Z,3.80
2023-05-24T23:55:43.486Z,3.60
2023-05-24T23:58:12.193Z,3.63
